Time;durP1;ratioP1;P1;durP2;ratioP2;P2;SDS_P1;SDS_P2;PMS_P1;PMS_P2;Temp;Humidity;BMP_temperature;BMP_pressure;BME280_temperature;BME280_humidity;BME280_pressure;Samples;Min_cycle;Max_cycle;Signal;HPM_P1;HPM_P2
2022/05/28 00:00:01;;;;;;;;;9.67;5.67;;;;;16.43;52.56;102051.00;5059859;28;45304;-44
2022/05/28 00:02:27;;;;;;;;;11.00;8.00;;;;;16.42;52.86;102051.13;5059632;28;45428;-47
2022/05/28 00:04:52;;;;;;;;;11.00;6.00;;;;;16.37;52.96;102040.84;5060014;28;45381;-53
2022/05/28 00:07:18;;;;;;;;;7.00;5.67;;;;;16.35;53.10;102039.31;5059973;28;45422;-59
2022/05/28 00:09:43;;;;;;;;;4.67;4.67;;;;;16.37;52.88;102045.38;5059687;28;46223;-60
2022/05/28 00:12:08;;;;;;;;;8.00;7.33;;;;;16.32;53.38;102036.94;5059819;28;45402;-51
2022/05/28 00:14:34;;;;;;;;;8.00;6.67;;;;;16.31;53.76;102043.31;5059720;28;45460;-66
2022/05/28 00:16:59;;;;;;;;;5.00;5.00;;;;;16.30;53.74;102037.09;5059767;28;45337;-62
2022/05/28 00:19:25;;;;;;;;;12.00;8.00;;;;;16.28;53.83;102039.09;5059487;28;46191;-54
2022/05/28 00:21:50;;;;;;;;;6.00;5.00;;;;;16.26;53.82;102043.75;5059584;28;45396;-67
2022/05/28 00:24:16;;;;;;;;;8.33;5.67;;;;;16.26;54.33;102035.69;5059764;28;45424;-61
2022/05/28 00:26:43;;;;;;;;;12.67;5.67;;;;;16.25;54.07;102038.53;5059687;28;45271;-66
2022/05/28 00:29:08;;;;;;;;;5.00;5.00;;;;;16.23;54.15;102043.25;5059430;28;45405;-65
2022/05/28 00:31:34;;;;;;;;;7.33;5.33;;;;;16.21;54.26;102041.53;5059247;28;45256;-66
2022/05/28 00:33:59;;;;;;;;;11.00;6.33;;;;;16.23;54.41;102045.94;5059703;28;45355;-66
2022/05/28 00:36:25;;;;;;;;;11.00;7.00;;;;;16.20;54.61;102030.94;5060251;28;45307;-67
2022/05/28 00:38:50;;;;;;;;;6.33;5.67;;;;;16.14;54.68;102021.69;5059368;28;46540;-66
2022/05/28 00:41:16;;;;;;;;;5.67;5.67;;;;;16.18;54.84;102027.56;5059946;28;45362;-67
2022/05/28 00:43:43;;;;;;;;;5.67;5.67;;;;;16.13;54.74;102025.34;5059361;28;45402;-45
2022/05/28 00:46:26;;;;;;;;;5.00;5.00;;;;;16.07;54.39;102022.44;5058146;28;45490;-66
2022/05/28 00:48:58;;;;;;;;;7.33;5.00;;;;;16.03;54.43;102013.00;5059268;28;46052;-59
2022/05/28 00:51:28;;;;;;;;;5.33;5.33;;;;;16.12;54.93;102022.81;5059472;28;45323;-67
2022/05/28 00:53:59;;;;;;;;;4.33;4.00;;;;;16.09;54.52;102017.72;5059444;28;45375;-64
2022/05/28 00:56:25;;;;;;;;;8.00;6.33;;;;;16.05;54.86;102016.34;5059345;28;45371;-66
2022/05/28 00:58:51;;;;;;;;;12.33;7.33;;;;;16.06;54.86;102018.06;5059250;28;45990;-64
2022/05/28 01:01:20;;;;;;;;;7.00;5.67;;;;;16.04;54.75;102017.34;5059102;28;45486;-61
2022/05/28 01:04:10;;;;;;;;;9.33;6.67;;;;;16.02;54.49;102020.19;5059323;28;45407;-60
2022/05/28 01:07:10;;;;;;;;;8.67;5.00;;;;;16.01;54.73;102018.50;5059134;28;45504;-63
2022/05/28 01:09:46;;;;;;;;;12.00;8.00;;;;;16.00;54.90;102019.50;5058816;28;46111;-67
2022/05/28 01:12:32;;;;;;;;;9.33;6.00;;;;;15.99;55.03;102016.97;5058397;28;45610;-67
2022/05/28 01:15:21;;;;;;;;;4.00;4.00;;;;;15.99;54.73;102011.59;5058987;28;45281;-59
2022/05/28 01:17:48;;;;;;;;;13.33;8.00;;;;;15.95;55.31;102014.56;5058935;28;45301;-67
2022/05/28 01:20:23;;;;;;;;;14.00;8.00;;;;;15.95;54.89;102013.75;5058621;28;48184;-59
2022/05/28 01:22:55;;;;;;;;;12.33;9.00;;;;;15.92;55.07;102011.34;5058735;28;45357;-67
2022/05/28 01:25:33;;;;;;;;;13.00;10.67;;;;;15.92;54.97;102003.28;5059147;28;45200;-59
2022/05/28 01:28:05;;;;;;;;;10.67;5.33;;;;;15.93;54.84;102010.38;5059079;28;45254;-64
2022/05/28 01:30:31;;;;;;;;;11.67;7.67;;;;;15.92;55.05;102006.81;5058671;28;46350;-66
2022/05/28 01:33:00;;;;;;;;;10.67;8.33;;;;;15.80;55.17;101985.72;5059583;28;45360;-65
2022/05/28 01:35:29;;;;;;;;;6.33;6.33;;;;;15.90;55.05;102003.47;5060212;28;45299;-48
2022/05/28 01:37:57;;;;;;;;;12.67;10.67;;;;;15.88;54.84;101999.22;5058825;28;45221;-68
2022/05/28 01:40:24;;;;;;;;;15.67;10.00;;;;;15.83;55.27;101988.94;5072078;28;45517;-62
2022/05/28 01:42:53;;;;;;;;;15.67;10.00;;;;;15.84;55.01;101993.31;5077305;28;45318;-62
2022/05/28 01:45:22;;;;;;;;;20.33;10.67;;;;;15.85;55.27;101996.88;5078918;27;45386;-43
2022/05/28 01:47:51;;;;;;;;;15.00;10.00;;;;;15.83;54.87;101998.84;5078799;27;45556;-44
2022/05/28 01:50:19;;;;;;;;;14.00;10.67;;;;;15.81;54.89;102003.53;5078724;27;46292;-43
2022/05/28 01:52:45;;;;;;;;;14.67;11.00;;;;;15.79;55.23;102002.81;5078603;27;45331;-42
2022/05/28 01:55:15;;;;;;;;;7.00;7.00;;;;;15.77;55.07;101994.94;5078641;27;45969;-45
2022/05/28 01:57:40;;;;;;;;;13.00;9.00;;;;;15.75;55.36;101993.38;5078474;27;45327;-42
2022/05/28 02:00:07;;;;;;;;;11.67;9.67;;;;;15.73;55.48;101998.06;5078444;27;45368;-50
2022/05/28 02:02:32;;;;;;;;;13.33;9.67;;;;;15.70;55.39;101992.00;5078379;27;45339;-45
2022/05/28 02:04:58;;;;;;;;;12.00;8.33;;;;;15.68;55.53;101988.63;5078634;27;45441;-42
2022/05/28 02:07:24;;;;;;;;;9.67;8.00;;;;;15.65;55.46;101986.22;5078499;27;46059;-57
2022/05/28 02:10:00;;;;;;;;;11.00;9.00;;;;;15.63;55.65;101980.16;5078521;27;46180;-43
2022/05/28 02:12:30;;;;;;;;;10.33;9.67;;;;;15.62;55.50;101980.28;5078209;28;45359;-53
2022/05/28 02:15:08;;;;;;;;;10.33;8.33;;;;;15.64;55.64;101989.03;5078415;27;45412;-42
2022/05/28 02:17:39;;;;;;;;;11.00;8.00;;;;;15.62;55.51;101981.13;5078278;27;45559;-44
2022/05/28 02:20:24;;;;;;;;;8.33;7.33;;;;;15.60;55.51;101979.59;5078093;27;46397;-47
2022/05/28 02:22:57;;;;;;;;;9.33;7.67;;;;;15.53;55.34;101967.78;5077933;27;45403;-44
2022/05/28 02:25:31;;;;;;;;;8.67;8.67;;;;;15.59;55.61;101973.41;5078409;28;45309;-47
2022/05/28 02:28:01;;;;;;;;;15.00;9.00;;;;;15.59;55.66;101975.22;5078316;27;45229;-43
2022/05/28 02:30:26;;;;;;;;;14.33;8.67;;;;;15.48;55.77;101961.03;5078143;27;45400;-44
2022/05/28 02:33:02;;;;;;;;;8.33;8.00;;;;;15.54;55.56;101972.97;5077078;27;45304;-42
2022/05/28 02:35:28;;;;;;;;;7.67;7.67;;;;;15.56;55.34;101970.16;5078156;28;45431;-42
2022/05/28 02:37:54;;;;;;;;;9.33;7.00;;;;;15.54;55.70;101964.94;5078327;27;45170;-47
2022/05/28 02:40:20;;;;;;;;;12.00;8.00;;;;;15.52;55.86;101964.25;5078054;27;45505;-42
2022/05/28 02:42:45;;;;;;;;;11.00;10.00;;;;;15.51;55.59;101959.91;5077883;27;45465;-46
2022/05/28 02:45:11;;;;;;;;;11.00;9.00;;;;;15.44;55.70;101948.06;5076769;28;45337;-43
2022/05/28 02:47:36;;;;;;;;;11.33;10.00;;;;;15.45;55.73;101955.09;5078232;27;45351;-43
2022/05/28 02:50:02;;;;;;;;;9.00;8.33;;;;;15.47;55.87;101963.88;5077539;27;46197;-43
2022/05/28 02:52:27;;;;;;;;;12.00;8.33;;;;;15.46;55.78;101963.03;5077786;27;45659;-47
2022/05/28 02:54:53;;;;;;;;;9.67;8.67;;;;;15.45;55.79;101955.09;5077886;27;45834;-60
2022/05/28 02:57:18;;;;;;;;;11.67;7.67;;;;;15.36;55.72;101947.97;5078299;27;45382;-45
2022/05/28 02:59:44;;;;;;;;;12.00;10.67;;;;;15.42;55.85;101956.28;5077601;27;47050;-44
2022/05/28 03:02:09;;;;;;;;;12.67;9.00;;;;;15.37;56.12;101953.16;5077501;27;45374;-42
2022/05/28 03:04:34;;;;;;;;;10.67;9.00;;;;;15.40;55.92;101957.41;5076365;28;45433;-42
2022/05/28 03:07:00;;;;;;;;;8.67;8.00;;;;;15.31;55.72;101940.38;5077745;27;45327;-45
2022/05/28 03:09:25;;;;;;;;;9.00;6.67;;;;;15.39;56.18;101967.28;5076436;27;46556;-40
2022/05/28 03:11:50;;;;;;;;;12.00;8.00;;;;;15.38;56.14;101948.66;5077259;27;45387;-43
2022/05/28 03:14:17;;;;;;;;;15.67;9.67;;;;;15.35;56.09;101954.31;5077641;27;45308;-41
2022/05/28 03:16:43;;;;;;;;;12.00;11.00;;;;;15.25;56.26;101943.63;5077616;27;45525;-43
2022/05/28 03:19:08;;;;;;;;;9.00;8.00;;;;;15.31;56.15;101943.03;5077049;27;46347;-46
2022/05/28 03:21:33;;;;;;;;;12.00;10.00;;;;;15.34;56.35;101953.47;5077297;27;45304;-42
2022/05/28 03:24:00;;;;;;;;;8.33;8.00;;;;;15.33;56.35;101956.28;5077488;27;45250;-65
2022/05/28 03:26:28;;;;;;;;;8.33;8.33;;;;;15.29;56.33;101949.53;5078029;27;45275;-42
2022/05/28 03:28:56;;;;;;;;;9.67;7.33;;;;;15.32;56.51;101954.63;5077294;28;46248;-47
2022/05/28 03:31:24;;;;;;;;;12.33;10.00;;;;;15.29;56.51;101946.84;5077131;27;45315;-42
2022/05/28 03:33:50;;;;;;;;;9.33;9.33;;;;;15.27;56.64;101952.38;5077201;27;45240;-42
2022/05/28 03:36:16;;;;;;;;;13.00;9.33;;;;;15.26;56.45;101950.69;5077381;27;45236;-43
2022/05/28 03:38:42;;;;;;;;;11.00;8.00;;;;;15.27;56.66;101949.69;5076927;27;46354;-41
2022/05/28 03:41:07;;;;;;;;;11.00;9.00;;;;;15.26;56.46;101948.03;5077201;27;45407;-40
2022/05/28 03:43:32;;;;;;;;;11.33;9.33;;;;;15.22;56.61;101943.94;5077150;27;45631;-46
2022/05/28 03:45:58;;;;;;;;;9.67;9.33;;;;;15.26;56.67;101947.19;5075926;28;45447;-43
2022/05/28 03:48:25;;;;;;;;;15.33;11.33;;;;;15.16;56.62;101936.47;5076933;27;45426;-42
2022/05/28 03:50:50;;;;;;;;;11.67;6.00;;;;;15.22;56.71;101950.16;5076969;27;45319;-45
2022/05/28 03:53:16;;;;;;;;;10.00;8.67;;;;;15.23;56.61;101949.16;5075708;28;45327;-43
2022/05/28 03:55:42;;;;;;;;;10.33;7.00;;;;;15.23;56.56;101954.50;5077147;27;45344;-42
2022/05/28 03:58:08;;;;;;;;;15.00;9.67;;;;;15.24;56.66;101963.38;5076807;27;45426;-45
2022/05/28 04:00:34;;;;;;;;;10.33;8.67;;;;;15.22;56.71;101960.03;5076725;28;45403;-49
2022/05/28 04:03:00;;;;;;;;;8.67;8.00;;;;;15.21;56.88;101967.22;5076624;28;45391;-55
2022/05/28 04:05:25;;;;;;;;;5.00;5.00;;;;;15.20;57.06;101964.66;5077188;27;45343;-55
2022/05/28 04:07:51;;;;;;;;;11.33;8.33;;;;;15.11;57.34;101957.53;5076404;27;46090;-54
2022/05/28 04:10:17;;;;;;;;;10.00;7.67;;;;;15.19;57.40;101974.56;5076895;27;45308;-42
2022/05/28 04:12:43;;;;;;;;;8.33;5.67;;;;;15.13;57.38;101966.28;5076718;27;45372;-45
2022/05/28 04:15:10;;;;;;;;;8.33;8.00;;;;;15.20;57.55;101980.75;5076935;27;45358;-65
2022/05/28 04:17:37;;;;;;;;;8.33;7.00;;;;;15.18;57.35;101970.19;5076527;27;46147;-45
2022/05/28 04:20:04;;;;;;;;;15.00;9.00;;;;;15.20;57.38;101975.41;5077751;28;45417;-65
2022/05/28 04:22:29;;;;;;;;;10.67;7.67;;;;;15.19;57.55;101977.22;5080846;27;45393;-62
2022/05/28 04:24:55;;;;;;;;;8.00;8.00;;;;;15.20;57.35;101980.75;5081077;27;45429;-42
2022/05/28 04:27:20;;;;;;;;;8.00;8.00;;;;;15.18;57.28;101980.91;5080678;27;46082;-56
2022/05/28 04:29:45;;;;;;;;;12.00;9.00;;;;;15.18;57.49;101990.78;5080515;28;45328;-48
2022/05/28 04:32:11;;;;;;;;;10.00;8.33;;;;;15.15;57.59;101991.06;5080132;27;45339;-45
2022/05/28 04:34:36;;;;;;;;;16.00;10.00;;;;;15.14;57.77;101987.56;5080161;27;45602;-43
2022/05/28 04:37:02;;;;;;;;;13.33;8.00;;;;;15.14;57.67;101992.06;5079817;27;45391;-54
2022/05/28 04:39:27;;;;;;;;;12.33;10.33;;;;;15.13;58.29;101985.03;5079627;27;45294;-46
2022/05/28 04:41:53;;;;;;;;;9.33;9.00;;;;;15.11;57.92;101990.53;5079423;27;45506;-57
2022/05/28 04:44:18;;;;;;;;;14.00;9.33;;;;;15.14;58.17;101994.75;5079960;27;45378;-43
2022/05/28 04:46:43;;;;;;;;;12.00;11.00;;;;;15.14;58.40;101995.59;5079748;27;45351;-62
2022/05/28 04:49:09;;;;;;;;;10.67;9.00;;;;;15.12;58.14;101997.56;5079587;27;45403;-58
2022/05/28 04:51:34;;;;;;;;;14.67;10.00;;;;;15.12;58.15;101996.72;5079714;27;45375;-58
2022/05/28 04:54:00;;;;;;;;;10.67;7.33;;;;;15.11;58.08;101998.56;5079857;27;45507;-65
2022/05/28 04:56:26;;;;;;;;;10.33;9.67;;;;;15.04;57.81;101983.22;5079473;27;46114;-42
2022/05/28 04:58:51;;;;;;;;;8.67;8.00;;;;;15.13;57.86;101996.59;5079555;27;45452;-57
2022/05/28 05:01:19;;;;;;;;;15.00;11.33;;;;;15.16;57.70;101996.28;5079672;27;45462;-58
2022/05/28 05:03:44;;;;;;;;;14.33;9.00;;;;;15.12;57.70;101986.84;5079602;27;45370;-42
2022/05/28 05:06:10;;;;;;;;;14.00;10.00;;;;;15.21;57.98;102006.56;5078886;27;46377;-68
2022/05/28 05:08:35;;;;;;;;;15.67;10.00;;;;;15.23;57.77;102007.28;5079328;27;45446;-64
2022/05/28 05:11:01;;;;;;;;;8.33;5.00;;;;;15.25;57.78;102007.13;5079669;27;45300;-60
2022/05/28 05:13:27;;;;;;;;;11.00;8.00;;;;;15.27;57.96;101999.78;5079511;27;45405;-59
2022/05/28 05:15:52;;;;;;;;;9.33;8.00;;;;;15.22;57.70;101994.88;5079357;27;45416;-59
2022/05/28 05:18:18;;;;;;;;;9.00;8.33;;;;;15.30;57.70;102007.56;5078962;27;45220;-59
2022/05/28 05:20:44;;;;;;;;;11.00;8.33;;;;;15.22;57.74;101990.34;5079282;27;45399;-65
2022/05/28 05:23:09;;;;;;;;;11.00;7.33;;;;;15.33;57.77;102002.72;5079342;27;45522;-57
2022/05/28 05:25:35;;;;;;;;;10.33;8.67;;;;;15.30;57.81;101991.47;5094520;27;46128;-43
2022/05/28 05:28:00;;;;;;;;;8.67;8.33;;;;;15.34;57.63;102007.09;5079002;27;45307;-61
2022/05/28 05:30:26;;;;;;;;;11.33;9.33;;;;;15.36;57.34;102002.44;5079236;27;45430;-62
2022/05/28 05:32:51;;;;;;;;;10.00;8.00;;;;;15.38;57.55;101994.22;5078706;28;45217;-55
2022/05/28 05:35:17;;;;;;;;;13.33;11.00;;;;;15.40;57.63;101995.78;5078932;27;46264;-62
2022/05/28 05:37:42;;;;;;;;;11.00;8.00;;;;;15.42;57.49;101991.13;5078925;27;45409;-54
2022/05/28 05:40:11;;;;;;;;;9.33;8.00;;;;;15.43;57.21;101997.34;5079233;27;45370;-65
2022/05/28 05:42:36;;;;;;;;;11.00;8.00;;;;;15.44;57.55;102002.53;5079276;27;45334;-42
2022/05/28 05:45:02;;;;;;;;;8.67;7.67;;;;;15.42;57.23;101983.09;5077946;28;45352;-47
2022/05/28 05:47:28;;;;;;;;;9.00;8.67;;;;;15.46;57.26;101988.97;5080121;28;45325;-61
2022/05/28 05:49:53;;;;;;;;;13.00;10.00;;;;;15.49;57.28;101988.69;5079108;27;45395;-42
2022/05/28 05:52:19;;;;;;;;;10.33;7.00;;;;;15.51;57.35;101985.88;5078988;27;45409;-47
2022/05/28 05:54:44;;;;;;;;;9.33;9.33;;;;;15.55;57.11;101990.78;5078639;27;45487;-68
2022/05/28 05:57:09;;;;;;;;;11.00;8.00;;;;;15.54;56.89;101982.88;5078352;28;45256;-42
2022/05/28 05:59:35;;;;;;;;;11.67;8.67;;;;;15.61;56.69;101992.03;5094231;27;45320;-59
2022/05/28 06:02:00;;;;;;;;;12.67;8.00;;;;;15.68;56.77;101999.34;5078509;27;45471;-61
2022/05/28 06:04:26;;;;;;;;;9.00;9.00;;;;;15.73;56.34;101990.84;5077934;27;46177;-51
2022/05/28 06:06:51;;;;;;;;;13.67;7.67;;;;;15.81;56.55;101998.16;5078280;27;45478;-62
2022/05/28 06:09:17;;;;;;;;;11.00;8.00;;;;;15.90;56.12;102002.63;5078345;27;45241;-61
2022/05/28 06:11:42;;;;;;;;;9.67;8.33;;;;;15.98;55.83;101997.34;5078501;27;45641;-67
2022/05/28 06:14:07;;;;;;;;;12.67;11.00;;;;;16.10;55.88;101992.59;5077947;27;45472;-66
2022/05/28 06:16:33;;;;;;;;;12.33;9.33;;;;;16.18;55.24;101992.66;5078133;27;45338;-43
2022/05/28 06:18:59;;;;;;;;;14.67;10.67;;;;;16.23;54.92;101981.50;5078559;27;45464;-63
2022/05/28 06:21:25;;;;;;;;;10.67;10.33;;;;;16.39;54.85;102000.41;5078329;27;45486;-51
2022/05/28 06:23:51;;;;;;;;;13.00;9.67;;;;;16.45;54.89;102005.19;5078069;27;46185;-52
2022/05/28 06:26:16;;;;;;;;;10.00;7.67;;;;;16.48;54.70;101996.81;5078215;27;45274;-49
2022/05/28 06:28:42;;;;;;;;;10.67;6.33;;;;;16.59;54.36;101996.56;5078187;27;45407;-64
2022/05/28 06:31:09;;;;;;;;;12.67;10.33;;;;;16.74;54.04;101996.88;5078546;27;45413;-42
2022/05/28 06:33:36;;;;;;;;;13.33;8.67;;;;;16.91;53.77;101997.84;5077915;27;47107;-42
2022/05/28 06:36:04;;;;;;;;;6.00;6.00;;;;;17.10;53.37;101997.63;5077530;27;45397;-39
2022/05/28 06:38:30;;;;;;;;;11.67;9.00;;;;;17.30;52.66;102000.09;5078144;28;45224;-42
2022/05/28 06:40:55;;;;;;;;;7.33;6.00;;;;;17.63;51.99;101998.41;5077954;27;45328;-42
2022/05/28 06:43:21;;;;;;;;;9.33;7.33;;;;;18.29;50.50;101999.44;5077814;27;45807;-50
2022/05/28 06:45:47;;;;;;;;;7.67;7.67;;;;;19.81;47.78;101986.03;5077857;27;45245;-42
2022/05/28 06:48:13;;;;;;;;;12.00;8.00;;;;;21.44;44.47;101990.00;5078026;27;45356;-42
2022/05/28 06:53:23;;;;;;;;;10.25;8.00;;;;;23.49;40.96;101982.09;5077826;28;46007;-41
2022/05/28 06:55:49;;;;;;;;;12.50;8.75;;;;;24.33;38.65;101982.56;5077786;27;45335;-46
2022/05/28 06:58:15;;;;;;;;;11.50;8.75;;;;;25.09;37.12;101975.88;5078137;27;45372;-61
2022/05/28 07:00:40;;;;;;;;;11.25;8.25;;;;;25.38;36.92;101982.72;5078087;28;45486;-55
2022/05/28 07:03:12;;;;;;;;;10.25;8.00;;;;;24.94;38.51;101981.53;5077650;27;46100;-45
2022/05/28 07:05:38;;;;;;;;;12.25;9.50;;;;;25.71;36.58;101977.13;5077660;28;45493;-42
2022/05/28 07:08:03;;;;;;;;;10.00;7.00;;;;;27.10;34.98;101976.13;5077862;27;45280;-49
2022/05/28 07:10:29;;;;;;;;;8.25;7.75;;;;;28.14;36.12;101977.94;5078032;27;45351;-49
2022/05/28 07:12:54;;;;;;;;;8.75;7.50;;;;;29.07;31.96;101963.53;5076656;27;45325;-41
2022/05/28 07:15:20;;;;;;;;;15.00;9.25;;;;;29.85;31.80;101964.03;5077483;28;45316;-42
2022/05/28 07:17:45;;;;;;;;;8.75;7.00;;;;;30.63;29.44;101968.66;5077803;27;45268;-41
2022/05/28 07:20:11;;;;;;;;;10.50;9.25;;;;;31.37;28.12;101970.31;5077635;27;45347;-42
2022/05/28 07:22:37;;;;;;;;;10.00;8.75;;;;;31.92;27.14;101959.13;5077263;27;45434;-44
2022/05/28 07:25:03;;;;;;;;;9.50;9.50;;;;;32.55;26.86;101956.63;5077357;27;45300;-47
2022/05/28 07:27:29;;;;;;;;;10.80;8.80;;;;;33.21;25.50;101961.72;5077467;28;45308;-43
2022/05/28 07:29:55;;;;;;;;;13.00;10.75;;;;;33.80;25.08;101952.28;5077617;27;45208;-44
2022/05/28 07:32:22;;;;;;;;;9.80;7.40;;;;;34.59;24.73;101954.50;5077049;27;46647;-58
2022/05/28 07:34:48;;;;;;;;;11.60;8.40;;;;;35.00;23.84;101952.50;5077172;27;45253;-44
2022/05/28 07:37:13;;;;;;;;;7.00;7.00;;;;;35.41;23.38;101946.78;5076348;28;45587;-57
2022/05/28 07:39:39;;;;;;;;;9.25;8.00;;;;;35.65;24.57;101940.56;5076148;28;45376;-49
2022/05/28 07:42:05;;;;;;;;;9.25;6.75;;;;;36.01;23.62;101945.91;5077051;27;45922;-43
2022/05/28 07:44:30;;;;;;;;;8.00;6.00;;;;;36.33;22.52;101939.81;5077022;27;45350;-42
2022/05/28 07:46:56;;;;;;;;;11.00;8.25;;;;;36.84;21.90;101940.13;5077218;27;45336;-42
2022/05/28 07:49:21;;;;;;;;;8.50;5.75;;;;;37.23;21.63;101947.41;5077439;27;45398;-43
2022/05/28 07:51:47;;;;;;;;;8.50;6.00;;;;;37.53;20.22;101940.63;5076582;27;46110;-41
2022/05/28 07:54:13;;;;;;;;;6.00;5.00;;;;;37.89;19.57;101940.97;5077155;27;45317;-42
2022/05/28 07:56:38;;;;;;;;;8.00;6.00;;;;;38.63;19.67;101943.81;5080249;28;45335;-44
2022/05/28 07:59:04;;;;;;;;;9.25;7.25;;;;;38.81;20.12;101944.91;5081110;27;45280;-46
2022/05/28 08:01:31;;;;;;;;;9.50;6.00;;;;;38.98;20.40;101940.66;5080526;27;46670;-43
2022/05/28 08:04:01;;;;;;;;;7.40;7.20;;;;;38.73;18.47;101942.81;5080314;27;45252;-42
2022/05/28 08:06:27;;;;;;;;;10.80;8.00;;;;;37.95;18.94;101938.91;5080360;27;45451;-43
2022/05/28 08:08:53;;;;;;;;;6.20;6.20;;;;;38.36;20.04;101939.06;5080646;27;45422;-43
2022/05/28 08:11:20;;;;;;;;;10.60;8.00;;;;;38.89;18.92;101937.78;5080291;27;45396;-44
2022/05/28 08:13:46;;;;;;;;;7.60;6.80;;;;;39.43;19.31;101931.31;5080392;27;45379;-43
2022/05/28 08:16:12;;;;;;;;;10.50;7.75;;;;;39.70;17.68;101928.78;5080064;27;45454;-54
2022/05/28 08:18:39;;;;;;;;;10.75;7.50;;;;;40.00;17.68;101933.59;5080698;27;45225;-43
2022/05/28 08:23:50;;;;;;;;;7.80;6.80;;;;;41.17;16.08;101923.16;5080065;28;45458;-43
2022/05/28 08:26:19;;;;;;;;;10.40;9.20;;;;;41.41;16.88;101931.91;5080147;27;45363;-43
2022/05/28 08:28:46;;;;;;;;;12.80;8.20;;;;;41.72;16.04;101931.75;5080111;27;45445;-45
2022/05/28 08:31:12;;;;;;;;;7.00;7.00;;;;;42.24;15.71;101933.69;5079769;27;46528;-40
2022/05/28 08:33:38;;;;;;;;;9.25;7.50;;;;;42.76;14.99;101930.69;5079810;27;45272;-44
2022/05/28 08:36:04;;;;;;;;;10.40;7.40;;;;;43.13;14.58;101940.22;5079919;28;45232;-42
2022/05/28 08:38:30;;;;;;;;;9.60;8.00;;;;;43.19;13.98;101924.00;5079931;27;45433;-45
2022/05/28 08:41:05;;;;;;;;;7.50;6.50;;;;;43.53;14.58;101926.59;5079758;27;45934;-42
2022/05/28 08:43:33;;;;;;;;;9.80;8.60;;;;;43.77;14.13;101928.66;5079707;27;45411;-43
2022/05/28 08:45:59;;;;;;;;;12.80;8.80;;;;;43.93;13.58;101917.66;5079718;27;45398;-40
2022/05/28 08:48:40;;;;;;;;;9.60;7.80;;;;;44.36;12.99;101926.75;5079929;27;45524;-42
2022/05/28 08:51:14;;;;;;;;;11.40;7.80;;;;;44.19;14.17;101919.34;5079536;27;45327;-43
2022/05/28 08:53:45;;;;;;;;;6.20;6.20;;;;;44.54;15.26;101933.75;5079556;27;45439;-45
2022/05/28 08:56:24;;;;;;;;;7.00;7.00;;;;;44.44;13.92;101914.59;5079575;27;45303;-41
2022/05/28 08:59:01;;;;;;;;;11.00;6.80;;;;;44.75;13.94;101917.66;5080003;27;45333;-42
2022/05/28 09:01:31;;;;;;;;;10.20;6.40;;;;;45.21;13.55;101914.69;5079418;28;46014;-43
2022/05/28 09:04:04;;;;;;;;;11.40;8.00;;;;;45.44;12.97;101904.56;5079179;27;45293;-54
2022/05/28 09:06:43;;;;;;;;;8.20;8.20;;;;;45.77;13.22;101909.94;5077274;27;45213;-41
2022/05/28 09:09:10;;;;;;;;;10.00;7.80;;;;;46.06;12.71;101905.06;5079483;27;45536;-42
2022/05/28 09:11:48;;;;;;;;;7.60;6.00;;;;;46.11;11.95;101904.81;5079276;28;46322;-43
2022/05/28 09:14:29;;;;;;;;;8.60;7.00;;;;;45.91;14.51;101897.47;5079043;28;45484;-49
2022/05/28 09:17:00;;;;;;;;;10.60;6.80;;;;;44.50;12.69;101899.16;5079314;27;45522;-50
2022/05/28 09:19:36;;;;;;;;;5.80;5.80;;;;;41.41;15.31;101903.16;5079556;27;45433;-41
2022/05/28 09:22:01;;;;;;;;;9.20;6.40;;;;;40.12;16.10;101899.63;5078944;28;46456;-60
2022/05/28 09:24:29;;;;;;;;;8.25;6.25;;;;;38.70;16.54;101901.69;5078859;27;45342;-41
2022/05/28 09:27:16;;;;;;;;;9.40;7.40;;;;;36.64;18.79;101902.34;5079232;27;45378;-56
2022/05/28 09:30:06;;;;;;;;;12.80;8.80;;;;;35.56;19.94;101900.78;5079149;27;45323;-47
2022/05/28 09:32:56;;;;;;;;;11.00;6.60;;;;;37.67;18.77;101899.06;5078793;27;45394;-49
2022/05/28 09:35:59;;;;;;;;;11.40;6.60;;;;;39.33;17.45;101892.59;5078766;27;45315;-42
2022/05/28 09:38:39;;;;;;;;;7.80;6.20;;;;;40.37;17.20;101887.78;5078868;27;45444;-41
2022/05/28 09:41:04;;;;;;;;;8.60;7.20;;;;;41.16;15.91;101883.25;5079037;27;45198;-41
2022/05/28 09:44:25;;;;;;;;;10.75;7.50;;;;;39.94;16.42;101883.88;5078470;27;46244;-48
2022/05/28 09:46:50;;;;;;;;;7.60;6.00;;;;;40.87;15.87;101875.47;5055981;28;45560;-44
2022/05/28 09:49:22;;;;;;;;;9.25;6.00;;;;;39.34;16.36;101874.75;5056346;28;45353;-43
2022/05/28 09:51:53;;;;;;;;;6.60;5.80;;;;;36.72;19.17;101868.44;5056444;28;45607;-43
2022/05/28 09:54:25;;;;;;;;;8.60;7.80;;;;;35.38;19.32;101871.81;5056081;28;45652;-41
2022/05/28 09:56:55;;;;;;;;;7.40;7.40;;;;;34.40;20.51;101868.59;5056023;28;45377;-49
2022/05/28 09:59:34;;;;;;;;;8.40;3.80;;;;;37.03;18.71;101862.50;5056169;28;45488;-41
2022/05/28 10:02:20;;;;;;;;;7.20;6.20;;;;;39.14;17.30;101855.72;5056182;28;45477;-48
2022/05/28 10:05:16;;;;;;;;;7.20;5.00;;;;;40.85;16.36;101852.66;5056016;28;45415;-44
2022/05/28 10:07:48;;;;;;;;;6.00;5.80;;;;;40.97;14.44;101840.91;5055651;28;45409;-43
2022/05/28 10:10:30;;;;;;;;;6.40;5.40;;;;;39.49;15.88;101856.03;5055719;28;45664;-42
2022/05/28 10:13:25;;;;;;;;;4.80;2.00;;;;;40.80;15.53;101841.66;5056079;28;45390;-41
2022/05/28 10:15:57;;;;;;;;;5.60;5.60;;;;;41.50;15.06;101828.56;4956551;28;46349;-42
2022/05/28 10:18:34;;;;;;;;;5.80;4.20;;;;;41.63;14.98;101838.72;4956387;28;45443;-54
2022/05/28 10:21:16;;;;;;;;;10.80;7.40;;;;;39.62;15.99;101844.03;4958357;28;45447;-41
2022/05/28 10:23:44;;;;;;;;;6.60;5.60;;;;;39.73;15.65;101827.88;4995905;28;45457;-43
2022/05/28 10:26:30;;;;;;;;;8.00;6.20;;;;;40.83;15.72;101830.66;4995718;28;46249;-56
2022/05/28 10:29:06;;;;;;;;;8.20;4.80;;;;;41.17;14.74;101823.47;4979159;28;45389;-41
2022/05/28 10:31:40;;;;;;;;;10.40;5.00;;;;;39.36;16.20;101833.50;4995838;28;45356;-41
2022/05/28 10:34:07;;;;;;;;;8.60;7.20;;;;;36.88;17.45;101840.53;4995786;28;45458;-58
2022/05/28 10:36:35;;;;;;;;;6.00;5.40;;;;;36.17;18.16;101831.06;4995479;28;47258;-41
2022/05/28 10:39:11;;;;;;;;;7.00;4.20;;;;;37.98;16.85;101835.53;4995334;28;45390;-48
2022/05/28 10:41:37;;;;;;;;;6.40;5.00;;;;;39.24;16.00;101830.47;4995721;28;45499;-41
2022/05/28 10:44:04;;;;;;;;;6.00;5.00;;;;;39.86;15.15;101822.22;4995637;28;45399;-42
2022/05/28 10:46:38;;;;;;;;;6.80;6.00;;;;;37.57;16.56;101819.53;4995334;28;46191;-42
2022/05/28 10:49:06;;;;;;;;;6.00;4.80;;;;;34.97;18.32;101820.34;4995225;28;45458;-40
2022/05/28 10:52:00;;;;;;;;;6.60;5.00;;;;;32.91;20.15;101816.28;5012912;28;45299;-41
2022/05/28 10:54:41;;;;;;;;;9.60;6.40;;;;;31.38;21.87;101824.31;5078092;27;45400;-41
2022/05/28 10:57:15;;;;;;;;;3.00;3.00;;;;;30.13;22.67;101829.53;5077697;27;46119;-56
2022/05/28 11:00:03;;;;;;;;;5.40;5.20;;;;;28.93;24.72;101830.59;5077773;27;45345;-40
2022/05/28 11:02:50;;;;;;;;;4.60;4.60;;;;;28.22;24.94;101829.84;5077691;27;45445;-53
2022/05/28 11:05:15;;;;;;;;;5.60;5.00;;;;;27.75;25.15;101813.41;5077945;27;45228;-45
2022/05/28 11:07:59;;;;;;;;;5.25;5.25;;;;;27.34;25.59;101815.88;5077221;27;46046;-41
2022/05/28 11:10:32;;;;;;;;;5.20;5.00;;;;;27.11;25.76;101821.25;5077663;27;45386;-42
2022/05/28 11:13:04;;;;;;;;;6.00;5.60;;;;;26.94;25.98;101815.56;5077724;28;45512;-46
2022/05/28 11:15:37;;;;;;;;;4.40;3.20;;;;;26.96;27.06;101812.59;5077819;28;45498;-43
2022/05/28 11:18:17;;;;;;;;;7.20;5.20;;;;;27.00;26.71;101803.72;5077194;27;45414;-40
2022/05/28 11:21:05;;;;;;;;;6.60;5.40;;;;;26.94;27.07;101809.28;5077466;27;45371;-49
2022/05/28 11:23:59;;;;;;;;;3.60;3.60;;;;;26.74;26.18;101799.41;5077183;27;45359;-41
2022/05/28 11:26:51;;;;;;;;;4.00;3.60;;;;;26.51;25.82;101802.84;5077525;27;45245;-41
2022/05/28 11:29:40;;;;;;;;;5.00;4.00;;;;;26.51;26.56;101786.47;5076638;28;45410;-41
2022/05/28 11:32:16;;;;;;;;;4.60;4.60;;;;;26.50;26.37;101784.78;5077217;27;45354;-44
2022/05/28 11:34:54;;;;;;;;;5.60;4.60;;;;;26.50;26.61;101795.69;5076014;28;45343;-44